sensor_id;sensor_type;location;lat;lon;timestamp;temperature;humidity
14739;DHT22;7461;52.440;13.540;2023-05-14T15:15:40;20.50;55.20
14739;DHT22;7461;52.440;13.540;2023-05-14T15:18:07;20.40;55.80
14739;DHT22;7461;52.440;13.540;2023-05-14T15:20:34;20.40;56.20
14739;DHT22;7461;52.440;13.540;2023-05-14T15:23:03;20.40;55.20
14739;DHT22;7461;52.440;13.540;2023-05-14T15:25:30;20.30;57.10
14739;DHT22;7461;52.440;13.540;2023-05-14T15:27:57;20.30;56.90
14739;DHT22;7461;52.440;13.540;2023-05-14T15:30:24;20.30;57.50
14739;DHT22;7461;52.440;13.540;2023-05-14T15:32:51;20.30;58.00
14739;DHT22;7461;52.440;13.540;2023-05-14T15:35:18;20.30;56.70
14739;DHT22;7461;52.440;13.540;2023-05-14T15:37:45;20.20;56.00
14739;DHT22;7461;52.440;13.540;2023-05-14T15:40:13;20.10;58.10
14739;DHT22;7461;52.440;13.540;2023-05-14T15:42:41;20.10;56.60
14739;DHT22;7461;52.440;13.540;2023-05-14T15:45:09;20.00;56.80
14739;DHT22;7461;52.440;13.540;2023-05-14T15:47:37;20.00;58.00
14739;DHT22;7461;52.440;13.540;2023-05-14T15:50:05;20.00;58.30
14739;DHT22;7461;52.440;13.540;2023-05-14T15:52:32;19.90;59.50
14739;DHT22;7461;52.440;13.540;2023-05-14T15:55:00;19.90;59.50
14739;DHT22;7461;52.440;13.540;2023-05-14T15:57:28;19.90;58.10
14739;DHT22;7461;52.440;13.540;2023-05-14T15:59:56;19.80;58.80
14739;DHT22;7461;52.440;13.540;2023-05-14T16:02:23;19.80;59.10
14739;DHT22;7461;52.440;13.540;2023-05-14T16:04:50;19.80;60.90
14739;DHT22;7461;52.440;13.540;2023-05-14T16:07:17;19.70;60.60
14739;DHT22;7461;52.440;13.540;2023-05-14T16:09:46;19.80;60.10
14739;DHT22;7461;52.440;13.540;2023-05-14T16:12:13;19.70;60.30
14739;DHT22;7461;52.440;13.540;2023-05-14T16:14:41;19.70;60.70
14739;DHT22;7461;52.440;13.540;2023-05-14T16:17:09;19.70;59.50
14739;DHT22;7461;52.440;13.540;2023-05-14T16:19:37;19.60;63.00
14739;DHT22;7461;52.440;13.540;2023-05-14T16:22:04;19.60;62.30
14739;DHT22;7461;52.440;13.540;2023-05-14T16:24:32;19.60;60.80
14739;DHT22;7461;52.440;13.540;2023-05-14T16:26:59;19.60;59.50
14739;DHT22;7461;52.440;13.540;2023-05-14T16:29:26;19.60;61.50
14739;DHT22;7461;52.440;13.540;2023-05-14T16:31:54;19.60;59.40
14739;DHT22;7461;52.440;13.540;2023-05-14T16:34:21;19.60;61.00
14739;DHT22;7461;52.440;13.540;2023-05-14T16:36:48;19.60;57.70
14739;DHT22;7461;52.440;13.540;2023-05-14T16:39:15;19.70;59.30
14739;DHT22;7461;52.440;13.540;2023-05-14T16:41:42;19.70;59.20
14739;DHT22;7461;52.440;13.540;2023-05-14T16:44:09;19.70;58.10
14739;DHT22;7461;52.440;13.540;2023-05-14T16:46:36;19.70;59.40
14739;DHT22;7461;52.440;13.540;2023-05-14T16:49:04;19.70;59.00
14739;DHT22;7461;52.440;13.540;2023-05-14T16:51:31;19.60;59.90
14739;DHT22;7461;52.440;13.540;2023-05-14T16:53:58;19.50;61.80
14739;DHT22;7461;52.440;13.540;2023-05-14T16:56:25;19.40;60.30
14739;DHT22;7461;52.440;13.540;2023-05-14T16:58:52;19.40;60.60
14739;DHT22;7461;52.440;13.540;2023-05-14T17:01:19;19.30;60.70
14739;DHT22;7461;52.440;13.540;2023-05-14T17:03:46;19.30;60.40
14739;DHT22;7461;52.440;13.540;2023-05-14T17:06:14;19.20;61.40
14739;DHT22;7461;52.440;13.540;2023-05-14T17:08:41;19.20;61.00
14739;DHT22;7461;52.440;13.540;2023-05-14T17:11:08;19.20;61.80
14739;DHT22;7461;52.440;13.540;2023-05-14T17:13:35;19.10;62.00
14739;DHT22;7461;52.440;13.540;2023-05-14T17:16:02;19.10;61.70
14739;DHT22;7461;52.440;13.540;2023-05-14T17:18:29;19.10;62.50
14739;DHT22;7461;52.440;13.540;2023-05-14T17:20:57;19.10;66.00
14739;DHT22;7461;52.440;13.540;2023-05-14T17:23:25;19.10;62.80
14739;DHT22;7461;52.440;13.540;2023-05-14T17:25:52;19.10;62.90
14739;DHT22;7461;52.440;13.540;2023-05-14T17:28:21;19.10;66.30
14739;DHT22;7461;52.440;13.540;2023-05-14T17:30:49;19.00;62.20
14739;DHT22;7461;52.440;13.540;2023-05-14T17:33:16;19.00;62.50
14739;DHT22;7461;52.440;13.540;2023-05-14T17:35:42;18.90;66.20
14739;DHT22;7461;52.440;13.540;2023-05-14T17:38:10;18.90;63.50
14739;DHT22;7461;52.440;13.540;2023-05-14T17:40:38;18.80;64.60
14739;DHT22;7461;52.440;13.540;2023-05-14T17:43:05;18.70;68.90
14739;DHT22;7461;52.440;13.540;2023-05-14T17:45:33;18.60;69.00
14739;DHT22;7461;52.440;13.540;2023-05-14T17:48:00;18.50;69.60
14739;DHT22;7461;52.440;13.540;2023-05-14T17:50:27;18.50;72.90
14739;DHT22;7461;52.440;13.540;2023-05-14T17:52:54;18.40;74.90
14739;DHT22;7461;52.440;13.540;2023-05-14T17:55:21;18.30;74.40
14739;DHT22;7461;52.440;13.540;2023-05-14T17:57:49;18.20;78.10
14739;DHT22;7461;52.440;13.540;2023-05-14T18:00:17;18.10;79.60
14739;DHT22;7461;52.440;13.540;2023-05-14T18:02:44;18.10;79.30
14739;DHT22;7461;52.440;13.540;2023-05-14T18:05:10;18.00;82.00
14739;DHT22;7461;52.440;13.540;2023-05-14T18:07:37;17.90;84.10
14739;DHT22;7461;52.440;13.540;2023-05-14T18:10:05;17.80;85.30
14739;DHT22;7461;52.440;13.540;2023-05-14T18:12:32;17.70;85.00
14739;DHT22;7461;52.440;13.540;2023-05-14T18:15:02;17.60;86.20
14739;DHT22;7461;52.440;13.540;2023-05-14T18:17:29;17.50;85.00
14739;DHT22;7461;52.440;13.540;2023-05-14T18:19:56;17.40;83.70
14739;DHT22;7461;52.440;13.540;2023-05-14T18:22:24;17.40;87.30
14739;DHT22;7461;52.440;13.540;2023-05-14T18:24:51;17.30;87.50
14739;DHT22;7461;52.440;13.540;2023-05-14T18:27:18;17.20;84.80
14739;DHT22;7461;52.440;13.540;2023-05-14T18:29:45;17.10;85.50
14739;DHT22;7461;52.440;13.540;2023-05-14T18:32:14;17.00;87.00
14739;DHT22;7461;52.440;13.540;2023-05-14T18:34:41;17.00;89.60
14739;DHT22;7461;52.440;13.540;2023-05-14T18:37:08;16.90;91.60
14739;DHT22;7461;52.440;13.540;2023-05-14T18:39:35;16.90;91.40
14739;DHT22;7461;52.440;13.540;2023-05-14T18:42:02;16.80;91.70
14739;DHT22;7461;52.440;13.540;2023-05-14T18:44:29;16.70;91.20
14739;DHT22;7461;52.440;13.540;2023-05-14T18:46:56;16.60;92.20
14739;DHT22;7461;52.440;13.540;2023-05-14T18:49:25;16.50;91.90
14739;DHT22;7461;52.440;13.540;2023-05-14T18:51:52;16.40;93.10
14739;DHT22;7461;52.440;13.540;2023-05-14T18:54:19;16.30;93.60
14739;DHT22;7461;52.440;13.540;2023-05-14T18:56:46;16.20;93.50
14739;DHT22;7461;52.440;13.540;2023-05-14T18:59:13;16.20;95.10
14739;DHT22;7461;52.440;13.540;2023-05-14T19:01:40;16.10;94.50
14739;DHT22;7461;52.440;13.540;2023-05-14T19:04:07;16.10;98.10
14739;DHT22;7461;52.440;13.540;2023-05-14T19:06:35;16.00;95.40
14739;DHT22;7461;52.440;13.540;2023-05-14T19:09:04;15.90;98.20
14739;DHT22;7461;52.440;13.540;2023-05-14T19:11:31;15.90;96.90
14739;DHT22;7461;52.440;13.540;2023-05-14T19:13:58;15.80;97.20
14739;DHT22;7461;52.440;13.540;2023-05-14T19:16:25;15.70;98.10
14739;DHT22;7461;52.440;13.540;2023-05-14T19:18:52;15.60;98.50
14739;DHT22;7461;52.440;13.540;2023-05-14T19:21:19;15.60;99.90
14739;DHT22;7461;52.440;13.540;2023-05-14T19:23:48;15.50;99.90
14739;DHT22;7461;52.440;13.540;2023-05-14T19:26:14;15.40;99.90
14739;DHT22;7461;52.440;13.540;2023-05-14T19:28:41;15.30;99.90
14739;DHT22;7461;52.440;13.540;2023-05-14T19:31:09;15.30;99.90
14739;DHT22;7461;52.440;13.540;2023-05-14T19:33:35;15.20;99.90
14739;DHT22;7461;52.440;13.540;2023-05-14T19:36:03;15.10;99.90
14739;DHT22;7461;52.440;13.540;2023-05-14T19:38:30;15.00;99.90
14739;DHT22;7461;52.440;13.540;2023-05-14T19:40:58;15.00;99.90
14739;DHT22;7461;52.440;13.540;2023-05-14T19:43:26;14.90;99.90
14739;DHT22;7461;52.440;13.540;2023-05-14T19:45:53;14.80;99.90
14739;DHT22;7461;52.440;13.540;2023-05-14T19:48:20;14.70;99.90
14739;DHT22;7461;52.440;13.540;2023-05-14T19:50:47;14.70;99.90
14739;DHT22;7461;52.440;13.540;2023-05-14T19:53:14;14.70;99.90
14739;DHT22;7461;52.440;13.540;2023-05-14T19:55:41;14.70;99.90
14739;DHT22;7461;52.440;13.540;2023-05-14T19:58:09;14.70;99.90
14739;DHT22;7461;52.440;13.540;2023-05-14T20:00:36;14.70;99.90
14739;DHT22;7461;52.440;13.540;2023-05-14T20:03:03;14.60;99.90
14739;DHT22;7461;52.440;13.540;2023-05-14T20:05:30;14.60;99.90
14739;DHT22;7461;52.440;13.540;2023-05-14T20:07:58;14.50;99.90
14739;DHT22;7461;52.440;13.540;2023-05-14T20:10:25;14.50;99.90
14739;DHT22;7461;52.440;13.540;2023-05-14T20:12:52;14.50;99.90
14739;DHT22;7461;52.440;13.540;2023-05-14T20:15:20;14.30;99.90
14739;DHT22;7461;52.440;13.540;2023-05-14T20:17:47;14.20;99.90
14739;DHT22;7461;52.440;13.540;2023-05-14T20:20:14;14.10;99.90
14739;DHT22;7461;52.440;13.540;2023-05-14T20:22:41;14.10;99.90
14739;DHT22;7461;52.440;13.540;2023-05-14T20:25:08;13.90;99.90
14739;DHT22;7461;52.440;13.540;2023-05-14T20:27:35;13.90;99.90
14739;DHT22;7461;52.440;13.540;2023-05-14T20:30:03;13.80;99.90
14739;DHT22;7461;52.440;13.540;2023-05-14T20:32:32;13.70;99.90
14739;DHT22;7461;52.440;13.540;2023-05-14T20:34:59;13.70;99.90
14739;DHT22;7461;52.440;13.540;2023-05-14T20:37:27;13.70;99.90
14739;DHT22;7461;52.440;13.540;2023-05-14T20:39:55;13.60;99.90
14739;DHT22;7461;52.440;13.540;2023-05-14T20:42:21;13.60;99.90
14739;DHT22;7461;52.440;13.540;2023-05-14T20:44:48;13.60;99.90
14739;DHT22;7461;52.440;13.540;2023-05-14T20:47:16;13.60;99.90
14739;DHT22;7461;52.440;13.540;2023-05-14T20:49:47;13.60;99.90
14739;DHT22;7461;52.440;13.540;2023-05-14T20:52:14;13.60;99.90
14739;DHT22;7461;52.440;13.540;2023-05-14T20:54:41;13.60;99.90
14739;DHT22;7461;52.440;13.540;2023-05-14T20:57:09;13.50;99.90
14739;DHT22;7461;52.440;13.540;2023-05-14T20:59:36;13.40;99.90
14739;DHT22;7461;52.440;13.540;2023-05-14T21:02:04;13.30;99.90
14739;DHT22;7461;52.440;13.540;2023-05-14T21:04:31;13.30;99.90
14739;DHT22;7461;52.440;13.540;2023-05-14T21:07:00;13.20;99.90
14739;DHT22;7461;52.440;13.540;2023-05-14T21:09:27;13.20;99.90
14739;DHT22;7461;52.440;13.540;2023-05-14T21:11:54;13.10;99.90
14739;DHT22;7461;52.440;13.540;2023-05-14T21:14:21;13.00;99.90
14739;DHT22;7461;52.440;13.540;2023-05-14T21:16:48;13.00;99.90
14739;DHT22;7461;52.440;13.540;2023-05-14T21:19:15;12.90;99.90
14739;DHT22;7461;52.440;13.540;2023-05-14T21:21:42;12.90;99.90
14739;DHT22;7461;52.440;13.540;2023-05-14T21:24:10;12.80;99.90
14739;DHT22;7461;52.440;13.540;2023-05-14T21:26:37;12.80;99.90
14739;DHT22;7461;52.440;13.540;2023-05-14T21:29:04;12.80;99.90
14739;DHT22;7461;52.440;13.540;2023-05-14T21:31:31;12.90;99.90
14739;DHT22;7461;52.440;13.540;2023-05-14T21:33:58;12.80;99.90
14739;DHT22;7461;52.440;13.540;2023-05-14T21:36:25;12.80;99.90
14739;DHT22;7461;52.440;13.540;2023-05-14T21:38:52;12.70;99.90
14739;DHT22;7461;52.440;13.540;2023-05-14T21:41:21;12.60;99.90
14739;DHT22;7461;52.440;13.540;2023-05-14T21:43:48;12.60;99.90
14739;DHT22;7461;52.440;13.540;2023-05-14T21:46:15;12.60;99.90
14739;DHT22;7461;52.440;13.540;2023-05-14T21:48:42;12.50;99.90
14739;DHT22;7461;52.440;13.540;2023-05-14T21:54:30;12.40;99.90
14739;DHT22;7461;52.440;13.540;2023-05-14T21:56:59;12.30;99.90
14739;DHT22;7461;52.440;13.540;2023-05-14T21:59:26;12.40;99.90
14739;DHT22;7461;52.440;13.540;2023-05-14T22:04:27;12.40;99.90
14739;DHT22;7461;52.440;13.540;2023-05-14T22:06:54;12.30;99.90
14739;DHT22;7461;52.440;13.540;2023-05-14T22:09:21;12.20;99.90
14739;DHT22;7461;52.440;13.540;2023-05-14T22:11:48;12.20;99.90
14739;DHT22;7461;52.440;13.540;2023-05-14T22:14:17;12.20;99.90
14739;DHT22;7461;52.440;13.540;2023-05-14T22:16:44;12.10;99.90
14739;DHT22;7461;52.440;13.540;2023-05-14T22:19:11;12.10;99.90
14739;DHT22;7461;52.440;13.540;2023-05-14T22:21:37;12.00;99.90
14739;DHT22;7461;52.440;13.540;2023-05-14T22:24:05;12.00;99.90
14739;DHT22;7461;52.440;13.540;2023-05-14T22:26:32;12.00;99.90
14739;DHT22;7461;52.440;13.540;2023-05-14T22:28:59;12.00;99.90
14739;DHT22;7461;52.440;13.540;2023-05-14T22:31:28;12.00;99.90
14739;DHT22;7461;52.440;13.540;2023-05-14T22:33:55;11.90;99.90
14739;DHT22;7461;52.440;13.540;2023-05-14T22:36:22;11.90;99.90
14739;DHT22;7461;52.440;13.540;2023-05-14T22:38:49;11.80;99.90
14739;DHT22;7461;52.440;13.540;2023-05-14T22:41:16;11.80;99.90
14739;DHT22;7461;52.440;13.540;2023-05-14T22:43:43;11.70;99.90
14739;DHT22;7461;52.440;13.540;2023-05-14T22:46:13;11.60;99.90
14739;DHT22;7461;52.440;13.540;2023-05-14T22:48:41;11.60;99.90
14739;DHT22;7461;52.440;13.540;2023-05-14T22:51:09;11.60;99.90
14739;DHT22;7461;52.440;13.540;2023-05-14T22:53:36;11.70;99.90
14739;DHT22;7461;52.440;13.540;2023-05-14T22:56:04;11.70;99.90
14739;DHT22;7461;52.440;13.540;2023-05-14T22:58:31;11.80;99.90
14739;DHT22;7461;52.440;13.540;2023-05-14T23:00:58;11.80;99.90
14739;DHT22;7461;52.440;13.540;2023-05-14T23:03:25;11.70;99.90
14739;DHT22;7461;52.440;13.540;2023-05-14T23:05:53;11.70;99.90
14739;DHT22;7461;52.440;13.540;2023-05-14T23:08:20;11.70;99.90
14739;DHT22;7461;52.440;13.540;2023-05-14T23:10:47;11.70;99.90
14739;DHT22;7461;52.440;13.540;2023-05-14T23:13:14;11.60;99.90
14739;DHT22;7461;52.440;13.540;2023-05-14T23:15:42;11.60;99.90
14739;DHT22;7461;52.440;13.540;2023-05-14T23:18:09;11.60;99.90
14739;DHT22;7461;52.440;13.540;2023-05-14T23:20:36;11.70;99.90
14739;DHT22;7461;52.440;13.540;2023-05-14T23:23:04;11.80;99.90
14739;DHT22;7461;52.440;13.540;2023-05-14T23:25:32;11.70;99.90
14739;DHT22;7461;52.440;13.540;2023-05-14T23:27:58;11.70;99.90
14739;DHT22;7461;52.440;13.540;2023-05-14T23:30:25;11.60;99.90
14739;DHT22;7461;52.440;13.540;2023-05-14T23:32:52;11.60;99.90
14739;DHT22;7461;52.440;13.540;2023-05-14T23:35:19;11.50;99.90
14739;DHT22;7461;52.440;13.540;2023-05-14T23:37:46;11.50;99.90
14739;DHT22;7461;52.440;13.540;2023-05-14T23:40:17;11.50;99.90
14739;DHT22;7461;52.440;13.540;2023-05-14T23:42:44;11.40;99.90
14739;DHT22;7461;52.440;13.540;2023-05-14T23:45:11;11.40;99.90
14739;DHT22;7461;52.440;13.540;2023-05-14T23:47:39;11.40;99.90
14739;DHT22;7461;52.440;13.540;2023-05-14T23:50:07;11.30;99.90
14739;DHT22;7461;52.440;13.540;2023-05-14T23:52:34;11.30;99.90
14739;DHT22;7461;52.440;13.540;2023-05-14T23:55:00;11.30;99.90
14739;DHT22;7461;52.440;13.540;2023-05-14T23:57:29;11.20;99.90
14739;DHT22;7461;52.440;13.540;2023-05-14T23:59:56;11.20;99.90
